createdAt,value
2017-08-20T00:00:45.922Z,16.1
2017-08-20T00:01:44.984Z,16.1
2017-08-20T00:02:44.668Z,16
2017-08-20T00:03:43.616Z,16
2017-08-20T00:04:43.173Z,16
2017-08-20T00:05:41.998Z,16
2017-08-20T00:06:41.566Z,16
2017-08-20T00:07:40.896Z,16
2017-08-20T00:08:40.074Z,16
2017-08-20T00:09:39.402Z,16
2017-08-20T00:10:38.463Z,16
2017-08-20T00:11:38.139Z,16
2017-08-20T00:12:37.315Z,16
2017-08-20T00:13:36.390Z,16
2017-08-20T00:14:35.944Z,16
2017-08-20T00:15:35.398Z,15.9
2017-08-20T00:16:34.459Z,15.9
2017-08-20T00:17:33.398Z,15.9
2017-08-20T00:18:32.731Z,15.8
2017-08-20T00:19:32.418Z,15.9
2017-08-20T00:20:31.117Z,15.8
2017-08-20T00:21:30.446Z,15.9
2017-08-20T00:22:30.008Z,15.9
2017-08-20T00:23:29.571Z,15.8
2017-08-20T00:24:28.642Z,15.9
2017-08-20T00:25:27.706Z,15.8
2017-08-20T00:26:27.268Z,15.9
2017-08-20T00:27:26.446Z,15.9
2017-08-20T00:28:26.002Z,15.9
2017-08-20T00:28:56.371Z,15.9
2017-08-20T00:29:26.735Z,15.9
2017-08-20T00:30:24.411Z,15.8
2017-08-20T00:32:22.984Z,15.8
2017-08-20T00:33:21.927Z,15.8
2017-08-20T00:34:21.491Z,15.8
2017-08-20T00:35:20.545Z,15.8
2017-08-20T00:36:20.223Z,15.8
2017-08-20T00:37:19.178Z,15.8
2017-08-20T00:38:18.352Z,15.7
2017-08-20T00:38:48.843Z,15.7
2017-08-20T00:39:19.332Z,15.8
2017-08-20T00:39:49.824Z,15.8
2017-08-20T00:40:20.197Z,15.7
2017-08-20T00:40:50.682Z,15.7
2017-08-20T00:42:15.531Z,15.6
2017-08-20T00:43:14.715Z,15.5
2017-08-20T00:44:14.399Z,15.5
2017-08-20T00:45:13.469Z,15.6
2017-08-20T00:46:12.648Z,15.6
2017-08-20T00:47:11.710Z,15.6
2017-08-20T00:48:11.392Z,15.5
2017-08-20T00:49:10.566Z,15.5
2017-08-20T00:50:09.770Z,15.5
2017-08-20T00:52:08.341Z,15.3
2017-08-20T00:53:07.278Z,15.3
2017-08-20T00:54:06.722Z,15.3
2017-08-20T00:55:05.781Z,15.3
2017-08-20T00:56:05.468Z,15.2
2017-08-20T00:57:04.568Z,15.2
2017-08-20T00:58:03.745Z,15.3
2017-08-20T00:59:03.424Z,15.3
2017-08-20T01:00:02.486Z,15.2
2017-08-20T01:01:01.549Z,15.3
2017-08-20T01:03:00.008Z,15.3
2017-08-20T01:03:59.575Z,15.3
2017-08-20T01:04:58.638Z,15.3
2017-08-20T01:05:58.321Z,15.2
2017-08-20T01:06:57.495Z,15.3
2017-08-20T01:07:56.673Z,15.3
2017-08-20T01:08:55.494Z,15.3
2017-08-20T01:10:54.565Z,15.3
2017-08-20T01:11:53.511Z,15.3
2017-08-20T01:12:52.955Z,15.3
2017-08-20T01:13:51.894Z,15.3
2017-08-20T01:14:52.033Z,15.3
2017-08-20T01:15:50.712Z,15.4
2017-08-20T01:16:49.773Z,15.5
2017-08-20T01:17:49.450Z,15.4
2017-08-20T01:18:48.639Z,15.4
2017-08-20T01:19:47.700Z,15.5
2017-08-20T01:20:18.184Z,15.5
2017-08-20T01:20:48.318Z,15.5
2017-08-20T01:21:19.188Z,15.5
2017-08-20T01:22:45.428Z,15.4
2017-08-20T01:23:44.610Z,15.4
2017-08-20T01:24:44.295Z,15.3
2017-08-20T01:25:43.475Z,15.4
2017-08-20T01:26:42.535Z,15.3
2017-08-20T01:27:41.703Z,15.3
2017-08-20T01:28:41.030Z,15.3
2017-08-20T01:29:40.205Z,15.3
2017-08-20T01:31:39.152Z,15.3
2017-08-20T01:32:38.219Z,15.3
2017-08-20T01:33:37.275Z,15.3
2017-08-20T01:36:35.109Z,15.2
2017-08-20T01:37:34.296Z,15.1
2017-08-20T01:38:33.981Z,15.1
2017-08-20T01:40:32.048Z,15.2
2017-08-20T01:41:31.489Z,15.2
2017-08-20T01:42:31.052Z,15.1
2017-08-20T01:43:30.225Z,15.1
2017-08-20T01:44:29.287Z,15.1
2017-08-20T01:45:28.348Z,15.1
2017-08-20T01:46:28.030Z,15.1
2017-08-20T01:47:26.978Z,15.1
2017-08-20T01:48:26.167Z,15.1
2017-08-20T01:49:25.724Z,15.1
2017-08-20T01:50:24.785Z,15.1
2017-08-20T01:51:24.227Z,15.1
2017-08-20T01:52:23.405Z,15.1
2017-08-20T01:53:22.464Z,15.1
2017-08-20T01:54:22.140Z,15.1
2017-08-20T01:55:21.320Z,15.1
2017-08-20T01:56:20.501Z,15.1
2017-08-20T01:57:19.677Z,15.1
2017-08-20T01:58:18.857Z,15.1
2017-08-20T02:00:17.419Z,15.2
2017-08-20T02:01:16.606Z,15.1
2017-08-20T02:02:15.778Z,15.1
2017-08-20T02:03:15.452Z,15.1
2017-08-20T02:04:14.512Z,15.1
2017-08-20T02:05:13.685Z,15.1
2017-08-20T02:06:12.742Z,15.1
2017-08-20T02:06:43.112Z,15.1
2017-08-20T02:07:13.596Z,15.1
2017-08-20T02:08:11.423Z,15.1
2017-08-20T02:09:10.366Z,15.1
2017-08-20T02:10:10.054Z,15.1
2017-08-20T02:11:09.129Z,15.1
2017-08-20T02:12:08.310Z,15.1
2017-08-20T02:13:07.994Z,15.2
2017-08-20T02:14:06.931Z,15.2
2017-08-20T02:15:06.134Z,15.2
2017-08-20T02:16:05.709Z,15.2
2017-08-20T02:17:04.889Z,15.3
2017-08-20T02:18:04.066Z,15.3
2017-08-20T02:19:03.241Z,15.2
2017-08-20T02:20:02.296Z,15.2
2017-08-20T02:21:01.863Z,15.3
2017-08-20T02:22:01.048Z,15.3
2017-08-20T02:23:01.175Z,15.3
2017-08-20T02:23:59.381Z,15.1
2017-08-20T02:25:57.954Z,15.1
2017-08-20T02:26:57.638Z,15.1
2017-08-20T02:27:56.695Z,15.1
2017-08-20T02:28:55.868Z,15.2
2017-08-20T02:29:55.046Z,15.2
2017-08-20T02:30:54.223Z,15.1
2017-08-20T02:31:53.905Z,15.1
2017-08-20T02:32:52.845Z,15.1
2017-08-20T02:33:52.023Z,15.1
2017-08-20T02:34:51.704Z,15.1
2017-08-20T02:36:49.758Z,15.2
2017-08-20T02:37:49.439Z,15.2
2017-08-20T02:38:48.620Z,15.3
2017-08-20T02:39:48.259Z,15.3
2017-08-20T02:41:46.086Z,15.2
2017-08-20T02:42:45.149Z,15.3
2017-08-20T02:43:44.702Z,15.3
2017-08-20T02:44:43.767Z,15.3
2017-08-20T02:45:43.903Z,15.3
2017-08-20T02:46:42.337Z,15.3
2017-08-20T02:51:38.961Z,15.2
2017-08-20T02:52:38.134Z,15.1
2017-08-20T02:53:37.318Z,15.1
2017-08-20T02:54:36.507Z,15.1
2017-08-20T02:55:35.694Z,15.1
2017-08-20T02:57:34.034Z,15.2
2017-08-20T02:58:33.723Z,15.1
2017-08-20T02:59:32.786Z,15.2
2017-08-20T03:00:31.846Z,15.2
2017-08-20T03:01:31.408Z,15.2
2017-08-20T03:03:29.978Z,15.2
2017-08-20T03:04:29.038Z,15.2
2017-08-20T03:05:28.600Z,15.2
2017-08-20T03:06:27.656Z,15.2
2017-08-20T03:07:26.710Z,15.2
2017-08-20T03:08:26.269Z,15.2
2017-08-20T03:08:56.649Z,15.2
2017-08-20T03:09:27.048Z,15.2
2017-08-20T03:09:57.422Z,15.2
2017-08-20T03:12:23.053Z,15.2
2017-08-20T03:13:22.618Z,15.1
2017-08-20T03:15:21.182Z,15.1
2017-08-20T03:16:20.357Z,15.2
2017-08-20T03:17:19.532Z,15.1
2017-08-20T03:18:18.743Z,15.1
2017-08-20T03:19:17.946Z,15.1
2017-08-20T03:21:16.395Z,15.1
2017-08-20T03:22:15.958Z,15
2017-08-20T03:24:14.527Z,15
2017-08-20T03:25:13.705Z,15
2017-08-20T03:26:12.888Z,15
2017-08-20T03:27:11.940Z,15
2017-08-20T03:28:11.628Z,15.1
2017-08-20T03:30:09.588Z,15
2017-08-20T03:31:09.278Z,15
2017-08-20T03:32:08.108Z,14.9
2017-08-20T03:33:07.673Z,14.8
2017-08-20T03:36:05.516Z,14.8
2017-08-20T03:37:04.461Z,14.8
2017-08-20T03:38:04.150Z,14.7
2017-08-20T03:38:34.657Z,14.7
2017-08-20T03:39:05.147Z,14.6
2017-08-20T03:39:35.632Z,14.6
2017-08-20T03:41:01.761Z,14.5
2017-08-20T03:42:00.950Z,14.5
2017-08-20T03:42:59.890Z,14.6
2017-08-20T03:43:59.328Z,14.6
2017-08-20T03:45:57.890Z,14.7
2017-08-20T03:46:57.073Z,14.7
2017-08-20T03:47:56.634Z,14.7
2017-08-20T03:48:55.813Z,14.6
2017-08-20T03:49:54.868Z,14.6
2017-08-20T03:50:54.043Z,14.6
2017-08-20T03:51:53.597Z,14.6
2017-08-20T03:52:52.539Z,14.6
2017-08-20T03:53:52.233Z,14.6
2017-08-20T03:54:51.992Z,14.6
2017-08-20T03:55:50.667Z,14.6
2017-08-20T03:56:49.730Z,14.6
2017-08-20T03:57:49.293Z,14.7
2017-08-20T03:59:47.355Z,14.7
2017-08-20T04:00:47.039Z,14.7
2017-08-20T04:01:46.218Z,14.7
2017-08-20T04:02:45.398Z,14.7
2017-08-20T04:03:44.337Z,14.7
2017-08-20T04:06:42.295Z,14.7
2017-08-20T04:07:41.353Z,14.7
2017-08-20T04:08:40.924Z,14.8
2017-08-20T04:09:39.982Z,14.8
2017-08-20T04:10:39.039Z,14.8
2017-08-20T04:11:38.592Z,14.8
2017-08-20T04:12:37.655Z,14.8
2017-08-20T04:13:36.707Z,14.8
2017-08-20T04:14:36.399Z,14.8
2017-08-20T04:16:34.729Z,14.8
2017-08-20T04:17:34.297Z,14.8
2017-08-20T04:18:33.234Z,14.8
2017-08-20T04:19:32.291Z,14.8
2017-08-20T04:20:31.621Z,14.8
2017-08-20T04:21:31.061Z,14.8
2017-08-20T04:22:29.882Z,14.8
2017-08-20T04:23:29.455Z,14.8
2017-08-20T04:24:28.636Z,14.8
2017-08-20T04:26:27.277Z,14.8
2017-08-20T04:27:26.453Z,14.8
2017-08-20T04:32:22.680Z,14.8
2017-08-20T04:33:21.616Z,14.8
2017-08-20T04:34:21.099Z,14.8
2017-08-20T04:35:20.771Z,14.7
2017-08-20T04:36:19.944Z,14.7
2017-08-20T04:37:19.119Z,14.7
2017-08-20T04:38:18.183Z,14.7
2017-08-20T04:39:17.358Z,14.7
2017-08-20T04:40:16.418Z,14.7
2017-08-20T04:41:16.100Z,14.7
2017-08-20T04:42:15.277Z,14.7
2017-08-20T04:43:14.455Z,14.7
2017-08-20T04:45:13.017Z,14.7
2017-08-20T04:46:12.073Z,14.6
2017-08-20T04:47:11.253Z,14.7
2017-08-20T04:48:10.690Z,14.6
2017-08-20T04:49:09.757Z,14.7
2017-08-20T04:51:08.332Z,14.7
2017-08-20T04:53:06.902Z,14.8
2017-08-20T04:54:05.845Z,14.9
2017-08-20T04:55:05.520Z,15
2017-08-20T04:56:04.580Z,15
2017-08-20T04:57:03.642Z,15
2017-08-20T04:59:02.230Z,14.9
2017-08-20T05:00:01.918Z,15
2017-08-20T05:01:00.977Z,15
2017-08-20T05:02:00.153Z,15.1
2017-08-20T05:02:59.218Z,15.2
2017-08-20T05:03:58.785Z,15.3
2017-08-20T05:04:57.966Z,15.1
2017-08-20T05:05:57.162Z,15.1
2017-08-20T05:06:56.347Z,15.1
2017-08-20T05:07:55.289Z,15.1
2017-08-20T05:09:54.357Z,15.3
2017-08-20T05:10:53.532Z,15.3
2017-08-20T05:12:51.993Z,15.3
2017-08-20T05:13:51.170Z,15.3
2017-08-20T05:14:50.231Z,15.3
2017-08-20T05:15:49.404Z,15.3
2017-08-20T05:16:48.969Z,15.3
2017-08-20T05:18:47.547Z,15.5
2017-08-20T05:20:45.613Z,15.5
2017-08-20T05:22:43.940Z,15.6
2017-08-20T05:23:43.499Z,15.6
2017-08-20T05:24:42.454Z,15.7
2017-08-20T05:25:41.784Z,15.6
2017-08-20T05:26:41.112Z,15.7
2017-08-20T05:27:40.303Z,15.6
2017-08-20T05:28:39.984Z,15.7
2017-08-20T05:29:38.802Z,15.7
2017-08-20T05:31:37.133Z,16
2017-08-20T05:32:36.697Z,16
2017-08-20T05:33:35.754Z,16
2017-08-20T05:34:35.445Z,16.1
2017-08-20T05:35:34.618Z,16.2
2017-08-20T05:36:33.671Z,16.3
2017-08-20T05:37:33.118Z,16.4
2017-08-20T05:38:31.944Z,16.6
2017-08-20T05:39:31.501Z,16.6
2017-08-20T05:40:30.952Z,16.6
2017-08-20T05:41:30.005Z,16.8
2017-08-20T05:42:29.195Z,16.7
2017-08-20T05:43:28.371Z,16.8
2017-08-20T05:44:27.558Z,16.9
2017-08-20T05:45:26.733Z,17
2017-08-20T05:46:26.409Z,17
2017-08-20T05:47:25.472Z,17.2
2017-08-20T05:48:24.656Z,17
2017-08-20T05:49:23.836Z,17
2017-08-20T05:50:23.009Z,17.1
2017-08-20T05:51:22.570Z,17.1
2017-08-20T05:52:21.511Z,17.3
2017-08-20T05:53:20.700Z,17.3
2017-08-20T05:54:20.384Z,17.3
2017-08-20T05:55:19.449Z,17.3
2017-08-20T05:56:18.504Z,17.3
2017-08-20T05:57:17.454Z,17.4
2017-08-20T05:58:17.130Z,17.4
2017-08-20T05:59:16.186Z,17.4
2017-08-20T06:00:15.870Z,17.3
2017-08-20T06:01:14.926Z,17.4
2017-08-20T06:02:13.992Z,17.6
2017-08-20T06:03:13.164Z,17.6
2017-08-20T06:04:12.732Z,17.8
2017-08-20T06:05:11.796Z,17.7
2017-08-20T06:06:10.974Z,17.7
2017-08-20T06:07:10.154Z,17.7
2017-08-20T06:08:09.723Z,18
2017-08-20T06:09:08.783Z,18.1
2017-08-20T06:10:08.229Z,18.1
2017-08-20T06:11:07.290Z,18.4
2017-08-20T06:12:06.356Z,18.6
2017-08-20T06:13:05.918Z,18.6
2017-08-20T06:14:04.983Z,18.5
2017-08-20T06:15:04.163Z,18.4
2017-08-20T06:16:03.741Z,18.4
2017-08-20T06:17:03.517Z,18.5
2017-08-20T06:18:02.095Z,18.5
2017-08-20T06:19:01.274Z,18.3
2017-08-20T06:20:00.338Z,18.5
2017-08-20T06:21:00.031Z,18.5
2017-08-20T06:21:59.090Z,18.4
2017-08-20T06:22:58.157Z,18.5
2017-08-20T06:23:57.836Z,18.5
2017-08-20T06:24:57.061Z,18.5
2017-08-20T06:25:56.119Z,18.4
2017-08-20T06:26:55.298Z,18.6
2017-08-20T06:27:54.474Z,18.8
2017-08-20T06:28:54.180Z,19
2017-08-20T06:29:53.239Z,19
2017-08-20T06:30:52.419Z,19
2017-08-20T06:31:51.491Z,19
2017-08-20T06:32:50.941Z,19.1
2017-08-20T06:33:50.118Z,19.4
2017-08-20T06:34:49.299Z,19.5
2017-08-20T06:35:48.485Z,19.5
2017-08-20T06:37:47.057Z,19.5
2017-08-20T06:38:46.238Z,19.3
2017-08-20T06:40:45.198Z,19.4
2017-08-20T06:41:43.915Z,19.4
2017-08-20T06:42:43.244Z,19.5
2017-08-20T06:43:42.567Z,19.8
2017-08-20T06:44:41.776Z,19.9
2017-08-20T06:47:39.506Z,20.1
2017-08-20T06:48:38.946Z,20.1
2017-08-20T06:49:38.125Z,20.2
2017-08-20T06:50:37.685Z,20.1
2017-08-20T06:51:36.740Z,20.1
2017-08-20T06:52:35.807Z,19.8
2017-08-20T06:53:35.394Z,19.9
2017-08-20T06:54:34.567Z,19.9
2017-08-20T06:55:33.760Z,19.8
2017-08-20T06:56:32.590Z,19.8
2017-08-20T06:57:32.419Z,19.6
2017-08-20T06:58:31.600Z,19.6
2017-08-20T06:59:31.048Z,19.6
2017-08-20T07:00:30.228Z,20.2
2017-08-20T07:01:29.403Z,20.2
2017-08-20T07:02:28.574Z,20.5
2017-08-20T07:03:27.760Z,20.6
2017-08-20T07:04:27.454Z,20.5
2017-08-20T07:06:25.905Z,20.1
2017-08-20T07:07:24.973Z,20.2
2017-08-20T07:09:23.307Z,20.1
2017-08-20T07:10:22.992Z,20.4
2017-08-20T07:11:22.171Z,20.5
2017-08-20T07:12:21.349Z,20.7
2017-08-20T07:13:20.539Z,20.6
2017-08-20T07:14:19.724Z,20.8
2017-08-20T07:16:18.285Z,20.8
2017-08-20T07:17:17.466Z,20.7
2017-08-20T07:18:16.922Z,20.7
2017-08-20T07:19:16.123Z,21
2017-08-20T07:20:15.303Z,21
2017-08-20T07:21:14.988Z,20.9
2017-08-20T07:22:14.169Z,20.7
2017-08-20T07:23:13.244Z,20.7
2017-08-20T07:24:12.308Z,20.5
2017-08-20T07:25:11.866Z,20.1
2017-08-20T07:26:11.040Z,19.8
2017-08-20T07:27:10.099Z,19.9
2017-08-20T07:28:09.658Z,19.7
2017-08-20T07:29:08.737Z,19.6
2017-08-20T07:30:08.186Z,19.7
2017-08-20T07:31:07.664Z,19.8
2017-08-20T07:32:06.604Z,20.1
2017-08-20T07:33:05.935Z,20.1
2017-08-20T07:34:04.996Z,20.3
2017-08-20T07:35:04.556Z,20.6
2017-08-20T07:36:03.740Z,20.6
2017-08-20T07:37:03.423Z,20.5
2017-08-20T07:38:02.485Z,20.6
2017-08-20T07:39:01.666Z,20.7
2017-08-20T07:40:00.841Z,20.7
2017-08-20T07:41:59.413Z,21.1
2017-08-20T07:42:59.098Z,21.5
2017-08-20T07:43:58.160Z,21.5
2017-08-20T07:44:57.350Z,21.6
2017-08-20T07:45:56.801Z,21.6
2017-08-20T07:46:55.976Z,21.8
2017-08-20T07:47:55.151Z,22
2017-08-20T07:48:54.784Z,21.9
2017-08-20T07:49:53.955Z,21.9
2017-08-20T07:50:53.132Z,21.9
2017-08-20T07:51:52.202Z,21.6
2017-08-20T07:53:50.662Z,21.4
2017-08-20T07:54:50.220Z,21.2
2017-08-20T07:55:49.398Z,21.1
2017-08-20T07:56:48.838Z,21.1
2017-08-20T07:57:48.014Z,21
2017-08-20T07:58:47.074Z,20.8
2017-08-20T07:59:46.517Z,21
2017-08-20T08:00:45.966Z,20.9
2017-08-20T08:01:45.146Z,20.8
2017-08-20T08:02:44.832Z,20.7
2017-08-20T08:03:43.916Z,20.6
2017-08-20T08:04:42.754Z,20.6
2017-08-20T08:05:42.320Z,20.8
2017-08-20T08:07:41.160Z,20.9
2017-08-20T08:08:40.219Z,21
2017-08-20T08:09:39.787Z,21.5
2017-08-20T08:10:38.727Z,21.9
2017-08-20T08:11:38.307Z,22.1
2017-08-20T08:13:36.871Z,22.1
2017-08-20T08:15:35.327Z,22.1
2017-08-20T08:16:34.772Z,22.1
2017-08-20T08:17:34.342Z,22
2017-08-20T08:18:33.397Z,21.8
2017-08-20T08:20:31.727Z,21.5
2017-08-20T08:21:31.171Z,21.4
2017-08-20T08:22:01.663Z,21.4
2017-08-20T08:22:32.046Z,21.4
2017-08-20T08:23:02.548Z,21.4
2017-08-20T08:24:29.401Z,21.5
2017-08-20T08:25:28.587Z,21.6
2017-08-20T08:26:27.532Z,21.5
2017-08-20T08:27:27.093Z,21.4
2017-08-20T08:28:26.277Z,21.5
2017-08-20T08:29:25.964Z,21.7
2017-08-20T08:30:25.156Z,21.6
2017-08-20T08:31:24.343Z,21.7
2017-08-20T08:32:23.399Z,21.7
2017-08-20T08:34:22.231Z,21.5
2017-08-20T08:35:21.312Z,21.4
2017-08-20T08:36:20.877Z,21.5
2017-08-20T08:37:20.203Z,21.5
2017-08-20T08:38:19.770Z,21.5
2017-08-20T08:39:18.948Z,21.3
2017-08-20T08:40:18.126Z,21.3
2017-08-20T08:40:48.626Z,21.3
2017-08-20T08:42:16.991Z,21.1
2017-08-20T08:43:16.169Z,21.2
2017-08-20T08:45:14.619Z,21.2
2017-08-20T08:46:14.178Z,21.1
2017-08-20T08:47:13.237Z,21.1
2017-08-20T08:48:12.918Z,21
2017-08-20T08:49:12.093Z,21
2017-08-20T08:50:11.268Z,21
2017-08-20T08:51:10.093Z,20.9
2017-08-20T08:52:09.774Z,21
2017-08-20T08:53:09.461Z,21
2017-08-20T08:54:08.637Z,21
2017-08-20T08:55:07.698Z,21
2017-08-20T08:56:07.261Z,21
2017-08-20T08:57:06.212Z,21.1
2017-08-20T08:58:05.663Z,21.3
2017-08-20T08:59:05.350Z,21.3
2017-08-20T09:00:04.259Z,21.5
2017-08-20T09:01:03.947Z,21.6
2017-08-20T09:02:03.126Z,21.8
2017-08-20T09:03:02.301Z,22.1
2017-08-20T09:04:01.866Z,22.2
2017-08-20T09:05:01.043Z,22.3
2017-08-20T09:06:00.492Z,22.4
2017-08-20T09:06:59.543Z,22.5
2017-08-20T09:07:59.100Z,22.6
2017-08-20T09:08:58.272Z,22.5
2017-08-20T09:09:57.954Z,22.5
2017-08-20T09:10:57.015Z,22.5
2017-08-20T09:11:56.204Z,22.6
2017-08-20T09:12:55.897Z,22.6
2017-08-20T09:13:55.083Z,22.5
2017-08-20T09:14:54.267Z,22.4
2017-08-20T09:15:53.830Z,22.4
2017-08-20T09:16:52.894Z,22.4
2017-08-20T09:17:52.464Z,22.4
2017-08-20T09:18:51.531Z,22.5
2017-08-20T09:19:50.976Z,22.3
2017-08-20T09:20:50.160Z,22.3
2017-08-20T09:21:49.841Z,22
2017-08-20T09:22:48.791Z,22
2017-08-20T09:23:48.352Z,21.8
2017-08-20T09:24:47.409Z,21.7
2017-08-20T09:25:46.971Z,21.5
2017-08-20T09:26:46.414Z,21.4
2017-08-20T09:27:45.594Z,21.3
2017-08-20T09:28:45.155Z,21.2
2017-08-20T09:30:43.605Z,21.1
2017-08-20T09:31:42.930Z,21
2017-08-20T09:33:41.273Z,20.9
2017-08-20T09:34:40.599Z,20.8
2017-08-20T09:35:40.164Z,20.8
2017-08-20T09:36:39.499Z,20.9
2017-08-20T09:37:39.062Z,21.1
2017-08-20T09:38:38.123Z,21.3
2017-08-20T09:39:37.808Z,21.5
2017-08-20T09:40:36.984Z,21.8
2017-08-20T09:41:36.434Z,21.8
2017-08-20T09:42:35.626Z,22
2017-08-20T09:43:34.568Z,22
2017-08-20T09:44:34.251Z,21.9
2017-08-20T09:45:33.465Z,21.6
2017-08-20T09:46:32.908Z,21.7
2017-08-20T09:47:32.241Z,21.6
2017-08-20T09:48:31.797Z,21.5
2017-08-20T09:49:30.860Z,21.3
2017-08-20T09:50:30.433Z,21.3
2017-08-20T09:51:29.607Z,21.3
2017-08-20T09:52:29.308Z,21.1
2017-08-20T09:53:28.485Z,21.1
2017-08-20T09:54:27.668Z,21.1
2017-08-20T09:55:26.842Z,21
2017-08-20T09:56:26.522Z,21
2017-08-20T09:57:25.597Z,20.8
2017-08-20T09:58:25.164Z,20.7
2017-08-20T09:59:24.346Z,20.6
2017-08-20T10:00:23.532Z,20.6
2017-08-20T10:01:22.983Z,20.6
2017-08-20T10:02:22.543Z,20.6
2017-08-20T10:03:21.726Z,20.6
2017-08-20T10:04:22.390Z,20.6
2017-08-20T10:05:20.355Z,20.6
2017-08-20T10:06:19.537Z,20.6
2017-08-20T10:08:18.601Z,20.6
2017-08-20T10:09:17.565Z,20.6
2017-08-20T10:10:17.126Z,20.6
2017-08-20T10:11:16.300Z,20.7
2017-08-20T10:12:15.873Z,20.8
2017-08-20T10:13:15.054Z,20.8
2017-08-20T10:14:14.507Z,20.8
2017-08-20T10:15:13.571Z,20.8
2017-08-20T10:16:13.266Z,20.8
2017-08-20T10:17:12.229Z,20.8
2017-08-20T10:18:11.923Z,20.8
2017-08-20T10:20:10.385Z,20.8
2017-08-20T10:21:09.590Z,20.8
2017-08-20T10:22:09.054Z,20.8
2017-08-20T10:23:08.248Z,20.8
2017-08-20T10:24:07.721Z,20.8
2017-08-20T10:25:06.908Z,20.8
2017-08-20T10:26:06.482Z,20.8
2017-08-20T10:27:05.662Z,21
2017-08-20T10:28:05.365Z,21
2017-08-20T10:29:04.334Z,21
2017-08-20T10:30:03.911Z,21
2017-08-20T10:31:03.114Z,21.1
2017-08-20T10:32:02.381Z,21.1
2017-08-20T10:33:01.957Z,21.1
2017-08-20T10:34:01.185Z,21.1
2017-08-20T10:35:00.380Z,21.1
2017-08-20T10:35:59.962Z,21.3
2017-08-20T10:36:59.166Z,21.3
2017-08-20T10:37:58.352Z,21.3
2017-08-20T10:38:57.928Z,21.4
2017-08-20T10:39:57.114Z,21.5
2017-08-20T10:41:55.700Z,21.6
2017-08-20T10:42:55.280Z,21.6
2017-08-20T10:43:54.470Z,21.6
2017-08-20T10:44:54.047Z,21.4
2017-08-20T10:45:53.130Z,21.3
2017-08-20T10:46:52.712Z,21.3
2017-08-20T10:48:51.158Z,21.2
2017-08-20T10:49:50.609Z,21.1
2017-08-20T10:50:49.691Z,21.1
2017-08-20T10:51:49.395Z,21.1
2017-08-20T10:52:48.852Z,21
2017-08-20T10:53:48.057Z,21
2017-08-20T10:54:47.268Z,21
2017-08-20T10:55:46.969Z,21
2017-08-20T10:56:46.153Z,20.9
2017-08-20T10:57:45.108Z,21
2017-08-20T10:59:44.198Z,21
2017-08-20T11:00:14.581Z,21
2017-08-20T11:01:42.737Z,21
2017-08-20T11:02:42.189Z,21.1
2017-08-20T11:03:41.256Z,21.1
2017-08-20T11:04:40.718Z,21.1
2017-08-20T11:05:40.302Z,21.2
2017-08-20T11:06:39.368Z,21.2
2017-08-20T11:07:38.833Z,21.2
2017-08-20T11:09:37.686Z,21.4
2017-08-20T11:10:37.260Z,21.5
2017-08-20T11:11:36.466Z,21.5
2017-08-20T11:12:35.651Z,21.4
2017-08-20T11:13:34.733Z,21.3
2017-08-20T11:14:34.311Z,21.3
2017-08-20T11:15:33.891Z,21.3
2017-08-20T11:16:32.970Z,21.3
2017-08-20T11:18:31.819Z,21.3
2017-08-20T11:19:31.027Z,21.3
2017-08-20T11:20:30.480Z,21.2
2017-08-20T11:21:29.678Z,21.1
2017-08-20T11:22:29.261Z,21.1
2017-08-20T11:24:27.730Z,21.2
2017-08-20T11:25:27.303Z,21.3
2017-08-20T11:26:26.384Z,21.3
2017-08-20T11:27:25.839Z,21.3
2017-08-20T11:28:25.405Z,21.3
2017-08-20T11:29:24.613Z,21.3
2017-08-20T11:30:24.304Z,21.3
2017-08-20T11:31:23.388Z,21.2
2017-08-20T11:32:22.230Z,21.1
2017-08-20T11:33:22.296Z,21.2
2017-08-20T11:34:21.366Z,21.2
2017-08-20T11:35:20.946Z,21.2
2017-08-20T11:36:20.012Z,21.2
2017-08-20T11:37:19.595Z,21.3
2017-08-20T11:38:19.160Z,21.4
2017-08-20T11:39:18.236Z,21.5
2017-08-20T11:40:17.711Z,21.6
2017-08-20T11:41:16.783Z,21.6
2017-08-20T11:42:16.374Z,21.8
2017-08-20T11:43:15.458Z,21.8
2017-08-20T11:44:15.164Z,21.9
2017-08-20T11:46:13.663Z,21.8
2017-08-20T11:47:13.361Z,21.9
2017-08-20T11:48:12.564Z,22
2017-08-20T11:49:11.756Z,22
2017-08-20T11:50:11.337Z,22
2017-08-20T11:51:10.528Z,22
2017-08-20T11:52:10.111Z,22
2017-08-20T11:53:09.362Z,22
2017-08-20T11:54:09.062Z,22
2017-08-20T11:55:08.258Z,22
2017-08-20T11:57:06.843Z,22
2017-08-20T11:58:06.536Z,22
2017-08-20T11:59:05.607Z,21.9
2017-08-20T12:00:05.180Z,21.9
2017-08-20T12:01:04.251Z,21.9
2017-08-20T12:02:03.949Z,22
2017-08-20T12:03:03.150Z,22
2017-08-20T12:04:02.725Z,21.9
2017-08-20T12:05:01.810Z,21.8
2017-08-20T12:06:01.283Z,21.8
2017-08-20T12:07:00.976Z,21.8
2017-08-20T12:08:00.083Z,21.8
2017-08-20T12:08:59.656Z,21.7
2017-08-20T12:09:58.850Z,21.7
2017-08-20T12:10:57.913Z,21.7
2017-08-20T12:11:57.263Z,21.6
2017-08-20T12:12:56.960Z,21.7
2017-08-20T12:13:56.429Z,21.6
2017-08-20T12:14:55.503Z,21.4
2017-08-20T12:15:55.081Z,21.3
2017-08-20T12:16:54.771Z,21.1
2017-08-20T12:17:53.973Z,21
2017-08-20T12:18:53.158Z,20.8
2017-08-20T12:19:52.623Z,20.8
2017-08-20T12:20:51.824Z,20.7
2017-08-20T12:21:51.527Z,20.5
2017-08-20T12:22:50.488Z,20.2
2017-08-20T12:23:49.953Z,20
2017-08-20T12:24:49.530Z,20
2017-08-20T12:25:48.718Z,20
2017-08-20T12:26:48.417Z,20
2017-08-20T12:27:47.619Z,19.9
2017-08-20T12:28:46.699Z,19.9
2017-08-20T12:29:46.181Z,20
2017-08-20T12:30:45.764Z,19.9
2017-08-20T12:31:44.718Z,20
2017-08-20T12:32:44.043Z,20
2017-08-20T12:33:43.391Z,20.1
2017-08-20T12:34:42.856Z,20.1
2017-08-20T12:35:42.319Z,20.2
2017-08-20T12:36:41.781Z,20.1
2017-08-20T12:37:40.862Z,20.2
2017-08-20T12:38:40.562Z,20.1
2017-08-20T12:39:39.638Z,20.2
2017-08-20T12:40:39.101Z,20.3
2017-08-20T12:41:38.668Z,20.2
2017-08-20T12:42:37.743Z,20.1
2017-08-20T12:43:37.436Z,20.1
2017-08-20T12:47:34.679Z,20.1
2017-08-20T12:48:33.511Z,20.2
2017-08-20T12:49:32.968Z,20.1
2017-08-20T12:50:32.544Z,20.1
2017-08-20T12:51:31.884Z,20
2017-08-20T12:52:31.571Z,20.1
2017-08-20T12:53:30.759Z,20.1
2017-08-20T12:54:30.100Z,19.9
2017-08-20T12:55:29.282Z,20
2017-08-20T12:56:28.855Z,20
2017-08-20T12:57:28.056Z,20
2017-08-20T12:58:27.753Z,20
2017-08-20T12:59:26.605Z,20.1
2017-08-20T13:00:26.308Z,20.1
2017-08-20T13:01:25.876Z,20.1
2017-08-20T13:02:24.833Z,20.1
2017-08-20T13:03:24.409Z,20.1
2017-08-20T13:04:23.482Z,20.1
2017-08-20T13:05:22.926Z,20
2017-08-20T13:06:22.633Z,20.1
2017-08-20T13:07:21.818Z,20.1
2017-08-20T13:08:20.885Z,20.1
2017-08-20T13:09:20.458Z,20.1
2017-08-20T13:10:20.030Z,20.2
2017-08-20T13:11:19.223Z,20.3
2017-08-20T13:12:18.416Z,20.3
2017-08-20T13:13:17.379Z,20.4
2017-08-20T13:14:16.973Z,20.4
2017-08-20T13:15:16.537Z,20.4
2017-08-20T13:16:15.718Z,20.5
2017-08-20T13:17:15.409Z,20.5
2017-08-20T13:18:14.608Z,20.5
2017-08-20T13:19:13.800Z,20.5
2017-08-20T13:20:13.495Z,20.5
2017-08-20T13:21:12.563Z,20.5
2017-08-20T13:22:11.753Z,20.5
2017-08-20T13:23:11.219Z,20.5
2017-08-20T13:24:10.562Z,20.5
2017-08-20T13:25:09.898Z,20.6
2017-08-20T13:26:09.580Z,20.6
2017-08-20T13:27:08.543Z,20.6
2017-08-20T13:28:08.242Z,20.5
2017-08-20T13:29:07.329Z,20.5
2017-08-20T13:30:06.565Z,20.5
2017-08-20T13:31:06.265Z,20.5
2017-08-20T13:32:05.458Z,20.3
2017-08-20T13:33:04.552Z,20.3
2017-08-20T13:34:04.135Z,20.3
2017-08-20T13:35:03.327Z,20.3
2017-08-20T13:36:02.549Z,20.3
2017-08-20T13:37:02.258Z,20.4
2017-08-20T13:38:01.347Z,20.4
2017-08-20T13:40:00.431Z,20.4
2017-08-20T13:40:59.503Z,20.3
2017-08-20T13:41:58.696Z,20.4
2017-08-20T13:42:58.395Z,20.3
2017-08-20T13:43:57.385Z,20.3
2017-08-20T13:44:57.080Z,20.3
2017-08-20T13:45:56.144Z,20.3
2017-08-20T13:46:55.606Z,20.3
2017-08-20T13:47:54.809Z,20.3
2017-08-20T13:48:54.505Z,20.3
2017-08-20T13:49:53.570Z,20.3
2017-08-20T13:50:52.786Z,20.3
2017-08-20T13:51:52.467Z,20.2
2017-08-20T13:52:51.663Z,20.2
2017-08-20T13:53:50.871Z,20.3
2017-08-20T13:54:50.576Z,20.3
2017-08-20T13:56:49.042Z,20.3
2017-08-20T13:57:48.246Z,20.3
2017-08-20T13:58:47.814Z,20.3
2017-08-20T13:59:47.005Z,20.3
2017-08-20T14:00:46.202Z,20.4
2017-08-20T14:01:45.784Z,20.5
2017-08-20T14:02:44.985Z,20.5
2017-08-20T14:03:43.938Z,20.4
2017-08-20T14:04:43.530Z,20.4
2017-08-20T14:05:43.225Z,20.4
2017-08-20T14:06:42.306Z,20.4
2017-08-20T14:07:42.003Z,20.4
2017-08-20T14:08:41.220Z,20.3
2017-08-20T14:09:40.300Z,20.3
2017-08-20T14:10:10.701Z,20.3
2017-08-20T14:11:38.959Z,20.4
2017-08-20T14:12:38.546Z,20.4
2017-08-20T14:13:37.385Z,20.5
2017-08-20T14:15:36.344Z,20.5
2017-08-20T14:16:35.801Z,20.6
2017-08-20T14:17:34.875Z,20.6
2017-08-20T14:18:34.571Z,20.6
2017-08-20T14:19:33.548Z,20.6
2017-08-20T14:20:33.241Z,20.6
2017-08-20T14:21:32.688Z,20.7
2017-08-20T14:22:31.880Z,20.6
2017-08-20T14:23:30.835Z,20.5
2017-08-20T14:24:30.413Z,20.5